Terminal Aerodrome Forecast
Issued by NWS Kansas City/Pleasant Hill, MO

Home | Current Version | Previous Version | Text Only | Print | Product List | Glossary On
Versions: 1 2 3 4 5 6 7 8 9 10 11 12 13 14 15 16
000
FTUS43 KEAX 270600 AAA
TAFMCI
TAF AMD
KMCI 270645Z 2707/2806 27007KT P6SM -DZ BKN009 OVC013
      TEMPO 2707/2709 6SM BR
     FM270900 30012KT P6SM OVC009
     FM271700 31011KT P6SM BKN015
     FM272000 31009KT P6SM SCT025
     FM272300 32007KT P6SM SKC=

USA.gov is the U.S. government's official web portal to all federal, state and local government web resources and services.